• Join FlightAware (Why Join?)
  • Login
  • US Flag 
 
06:31PM EST


 

Airport Tracker/Info


-or-


 

Live Flight TrackerFlight Track Log ✈ N682RW ✈ 14-Aug-2013 ✈ KMDW - KDTW

Flight Track Log - Related Links

Times and Time Zones

All times are in EDT time to prevent confusion due to time zone crossing. See the N682RW flight status page for this flight to view local times or setup timezone preferences in your user account.

Time Position Orientation Groundspeed Altitude Reporting Facility
EDT Latitude Longitude Course Direction KTS MPH feet Rate Location/Type
07:49PM 41.8000 -87.6833 81° East 196 226 3,000  Level Chicago TRACON
07:51PM 41.7997 -87.5556 90° East 233 268 6,300 2,580 Climbing Chicago Center
07:52PM 41.8158 -87.4514 78° East 281 323 9,400 2,880 Climbing Chicago Center
07:53PM 41.8053 -87.3419 97° East 298 343 12,300 2,460 Climbing Chicago Center
07:54PM 41.7844 -87.2228 103° East 320 368 14,500 1,860 Climbing Chicago Center
07:55PM 41.9183 -86.5646 81° East  Level Estimated
07:55PM 41.7664 -87.0844 100° East 369 425 16,200  Level Chicago Center
07:56PM 41.7628 -86.9047 91° East 401 461 19,000 1,320 Climbing Chicago Center
07:57PM 41.7633 -86.7533 90° East 406 467 19,000  Level Chicago Center
07:58PM 41.7650 -86.5964 89° East 409 471 19,000  Level Chicago Center
07:59PM 41.7656 -86.4450 90° East 409 471 19,000  Level Chicago Center
08:00PM 41.7711 -86.2931 87° East 408 470 19,000  Level Chicago Center
08:01PM 41.8006 -86.1483 75° East 403 464 19,000  Level Chicago Center
08:02PM 41.8300 -86.0028 75° East 404 465 19,000  Level Chicago Center
08:03PM 41.8583 -85.8569 75° East 403 464 19,000  Level Chicago Center
08:04PM 41.8919 -85.6817 75° East 402 463 19,000  Level Chicago Center
08:05PM 41.9203 -85.5336 76° East 404 465 19,000  Level Chicago Center
08:06PM 41.9492 -85.3847 75° East 407 468 19,000  Level Chicago Center
08:07PM 41.9775 -85.2364 76° East 407 468 19,000  Level Chicago Center
08:08PM 42.0053 -85.0783 77° East 409 471 19,000  Level Chicago Center
08:09PM 42.0325 -84.9317 76° East 407 468 19,000 -300 Level Chicago Center
08:10PM 42.0544 -84.7842 79° East 407 468 18,500 -600 Descending Chicago Center
08:12PM 42.0011 -84.6497 118° Southeast 419 482 17,800 -1,020 Descending Chicago Center
08:13PM 41.9233 -84.5047 126° Southeast 414 476 16,400 -1,560 Descending Chicago Center
08:14PM 41.8583 -84.3844 126° Southeast 404 465 14,600 -1,800 Descending Chicago Center
08:14PM 41.8100 -84.2997 127° Southeast 387 445 13,300 -1,680 Descending Cleveland Center
08:15PM 41.7978 -84.1625 97° East 364 419 11,800 -1,140 Descending Cleveland Center
08:16PM 41.8331 -84.0333 70° East 354 407 11,000 -420 Descending Cleveland Center
08:17PM 41.8983 -83.9394 47° Northeast 349 402 11,000  Level Cleveland Center
08:18PM 41.9636 -83.8422 48° Northeast 349 402 11,000  Level Cleveland Center
08:19PM 42.0331 -83.7422 47° Northeast 349 402 11,000  Level Cleveland Center
08:21PM 42.0889 -83.6050 61° Northeast 342 394 11,000  Level Cleveland Center
08:21PM 42.1039 -83.5164 77° East 335 386 11,000  Level Cleveland Center
08:23PM 42.1281 -83.3831 76° East 314 361 11,000 -60 Level Cleveland Center
08:23PM 42.1469 -83.2914 74° East 273 314 10,900 -660 Descending Cleveland Center
08:24PM 42.1981 -83.2403 37° Northeast 232 267 9,900 -1,320 Descending Cleveland Center
08:25PM 42.2533 -83.1950 31° Northeast 233 268 8,400 -900 Descending Cleveland Center
08:27PM 42.3128 -83.1467 31° Northeast 234 269 8,000 -240 Descending Cleveland Center
08:28PM 42.3681 -83.1042 30° Northeast 196 226 8,000 -720 Level Cleveland Center
08:29PM 42.4108 -83.1425 327° Northwest 196 226 6,600 -1,440 Descending Cleveland Center
08:30PM 42.3969 -83.2036 253° West 191 220 5,100 -1,500 Descending Cleveland Center
08:31PM 42.3503 -83.2383 209° Southwest 192 221 3,600 -1,260 Descending Cleveland Center
08:32PM 42.3058 -83.2728 210° Southwest 176 203 2,600 -960 Descending Cleveland Center
08:33PM 42.2653 -83.3050 210° Southwest 150 173 1,700 -840 Descending Cleveland Center
08:34PM 42.2317 -83.3258 205° Southwest 130 150 1,000 -720 Descending Cleveland Center